Time;durP1;ratioP1;P1;durP2;ratioP2;P2;SDS_P1;SDS_P2;PMS_P1;PMS_P2;Temp;Humidity;BMP_temperature;BMP_pressure;BME280_temperature;BME280_humidity;BME280_pressure;Samples;Min_cycle;Max_cycle;Signal;HPM_P1;HPM_P2
2022/04/25 00:02:00;;;;;;;10.30;6.90;;;;;;;;;;5055479;28;20516;-79
2022/04/25 00:04:25;;;;;;;9.95;6.50;;;;;;;;;;5055685;28;20025;-80
2022/04/25 00:06:55;;;;;;;6.32;5.03;;;;;;;;;;5055422;28;20040;-77
2022/04/25 00:09:21;;;;;;;16.65;11.50;;;;;;;;;;5055639;28;20029;-77
2022/04/25 00:11:46;;;;;;;21.33;13.07;;;;;;;;;;5034185;28;20082;-76
2022/04/25 00:14:14;;;;;;;27.95;17.50;;;;;;;;;;5053516;28;20260;-76
2022/04/25 00:16:40;;;;;;;39.50;21.98;;;;;;;;;;5055531;28;20017;-76
2022/04/25 00:19:05;;;;;;;24.80;16.17;;;;;;;;;;5055047;28;20552;-76
2022/04/25 00:21:30;;;;;;;11.52;7.22;;;;;;;;;;5055422;28;20044;-76
2022/04/25 00:23:57;;;;;;;5.88;4.97;;;;;;;;;;5055118;28;20051;-76
2022/04/25 00:26:22;;;;;;;6.35;5.25;;;;;;;;;;5037316;28;20029;-76
2022/04/25 00:28:47;;;;;;;10.00;6.70;;;;;;;;;;5037120;28;20040;-79
2022/04/25 00:31:13;;;;;;;8.70;6.63;;;;;;;;;;5055166;28;20021;-75
2022/04/25 00:33:39;;;;;;;7.85;5.68;;;;;;;;;;5054898;28;20045;-73
2022/04/25 00:36:04;;;;;;;5.95;5.20;;;;;;;;;;5055310;28;20052;-74
2022/04/25 00:38:30;;;;;;;11.63;8.55;;;;;;;;;;5055093;28;20098;-74
2022/04/25 00:40:55;;;;;;;13.52;10.05;;;;;;;;;;5054741;28;20025;-74
2022/04/25 00:43:20;;;;;;;16.75;12.55;;;;;;;;;;5054914;28;20036;-73
2022/04/25 00:45:46;;;;;;;12.80;8.80;;;;;;;;;;5054681;28;20595;-74
2022/04/25 00:48:13;;;;;;;10.98;8.10;;;;;;;;;;5054614;28;20033;-74
2022/04/25 00:50:39;;;;;;;10.52;7.13;;;;;;;;;;5037178;28;20025;-75
2022/04/25 00:53:05;;;;;;;11.43;9.02;;;;;;;;;;5054804;28;20029;-77
2022/04/25 00:55:32;;;;;;;10.48;7.60;;;;;;;;;;5054735;28;20476;-74
2022/04/25 00:57:57;;;;;;;11.50;9.02;;;;;;;;;;5054662;28;20025;-74
2022/04/25 01:00:23;;;;;;;11.70;9.10;;;;;;;;;;5054352;28;20075;-74
2022/04/25 01:02:48;;;;;;;6.72;5.00;;;;;;;;;;5053108;28;20045;-74
2022/04/25 01:05:13;;;;;;;5.93;5.00;;;;;;;;;;5054014;28;20020;-74
2022/04/25 01:07:39;;;;;;;6.60;5.35;;;;;;;;;;5054231;28;20033;-74
2022/04/25 01:10:06;;;;;;;5.97;4.90;;;;;;;;;;5033437;28;20210;-77
2022/04/25 01:12:31;;;;;;;6.75;5.32;;;;;;;;;;5054464;28;20062;-75
2022/04/25 01:14:58;;;;;;;7.13;6.40;;;;;;;;;;5052770;28;20482;-75
2022/04/25 01:17:24;;;;;;;7.75;6.93;;;;;;;;;;5054376;28;20376;-75
2022/04/25 01:19:51;;;;;;;7.20;6.50;;;;;;;;;;5054030;28;20025;-74
2022/04/25 01:22:19;;;;;;;8.02;6.30;;;;;;;;;;5054271;28;20039;-74
2022/04/25 01:27:28;;;;;;;6.15;5.50;;;;;;;;;;5054487;28;20041;-75
2022/04/25 01:29:54;;;;;;;5.68;4.78;;;;;;;;;;5053993;28;20051;-75
2022/04/25 01:32:20;;;;;;;7.15;4.68;;;;;;;;;;5053722;28;20029;-75
2022/04/25 01:34:46;;;;;;;5.32;4.82;;;;;;;;;;5053694;28;20496;-78
2022/04/25 01:37:14;;;;;;;6.55;5.93;;;;;;;;;;5053778;28;20068;-78
2022/04/25 01:39:40;;;;;;;6.53;5.85;;;;;;;;;;5054033;28;20082;-78
2022/04/25 01:42:07;;;;;;;6.32;5.78;;;;;;;;;;5053730;28;20048;-79
2022/04/25 01:44:34;;;;;;;6.82;6.10;;;;;;;;;;5053621;28;20476;-78
2022/04/25 01:47:00;;;;;;;7.15;6.22;;;;;;;;;;5054077;28;20423;-74
2022/04/25 01:49:28;;;;;;;7.38;5.65;;;;;;;;;;5053566;28;20013;-75
2022/04/25 01:51:54;;;;;;;6.22;5.63;;;;;;;;;;5035809;28;20040;-74
2022/04/25 01:54:25;;;;;;;5.88;5.25;;;;;;;;;;5053825;28;20104;-75
2022/04/25 01:56:51;;;;;;;6.10;4.97;;;;;;;;;;5053828;28;20403;-75
2022/04/25 01:59:16;;;;;;;6.10;5.50;;;;;;;;;;5053619;28;20090;-75
2022/04/25 02:01:43;;;;;;;5.60;4.97;;;;;;;;;;5053757;28;20025;-75
2022/04/25 02:04:08;;;;;;;6.68;5.47;;;;;;;;;;5035571;28;20024;-81
2022/04/25 02:06:33;;;;;;;6.40;5.70;;;;;;;;;;5053739;28;20055;-81
2022/04/25 02:09:05;;;;;;;5.93;5.28;;;;;;;;;;5053702;28;20021;-85
2022/04/25 02:11:31;;;;;;;7.88;6.18;;;;;;;;;;5053713;28;20099;-86
2022/04/25 02:14:13;;;;;;;9.70;7.93;;;;;;;;;;5035430;28;20442;-85
2022/04/25 02:16:39;;;;;;;8.57;6.80;;;;;;;;;;5053587;28;20036;-81
2022/04/25 02:19:04;;;;;;;7.05;5.72;;;;;;;;;;5057140;28;20017;-78
2022/04/25 02:21:35;;;;;;;6.10;5.50;;;;;;;;;;5057412;28;20381;-78
2022/04/25 02:24:01;;;;;;;8.60;7.07;;;;;;;;;;5039502;28;20072;-79
2022/04/25 02:26:26;;;;;;;15.55;9.90;;;;;;;;;;5057786;28;20063;-78
2022/04/25 02:28:54;;;;;;;14.38;9.88;;;;;;;;;;5039424;28;20029;-78
2022/04/25 02:31:19;;;;;;;8.05;6.75;;;;;;;;;;5039148;28;20021;-78
2022/04/25 02:33:45;;;;;;;7.00;6.13;;;;;;;;;;5056731;28;20405;-78
2022/04/25 02:36:12;;;;;;;7.90;6.18;;;;;;;;;;5057423;28;20028;-78
2022/04/25 02:38:38;;;;;;;7.50;5.88;;;;;;;;;;5057292;28;20086;-80
2022/04/25 02:41:08;;;;;;;7.70;5.82;;;;;;;;;;5057315;28;20024;-80
2022/04/25 02:43:35;;;;;;;6.78;5.75;;;;;;;;;;5039502;28;20083;-78
2022/04/25 02:46:01;;;;;;;8.20;5.93;;;;;;;;;;5056932;28;20091;-80
2022/04/25 02:48:28;;;;;;;7.95;5.80;;;;;;;;;;5039142;28;20491;-83
2022/04/25 02:50:54;;;;;;;7.13;6.43;;;;;;;;;;5057089;28;20161;-83
2022/04/25 02:53:24;;;;;;;7.55;6.13;;;;;;;;;;5038873;28;20028;-82
2022/04/25 02:55:50;;;;;;;7.82;6.20;;;;;;;;;;5039191;28;20070;-81
2022/04/25 02:58:15;;;;;;;7.72;6.38;;;;;;;;;;5055310;28;20037;-81
2022/04/25 03:00:45;;;;;;;8.10;5.85;;;;;;;;;;5056721;28;20112;-82
2022/04/25 03:03:11;;;;;;;7.20;5.70;;;;;;;;;;5056926;28;20033;-82
2022/04/25 03:05:37;;;;;;;11.13;7.70;;;;;;;;;;5038674;28;20159;-82
2022/04/25 03:08:03;;;;;;;8.70;7.72;;;;;;;;;;5056867;28;20062;-82
2022/04/25 03:10:29;;;;;;;7.90;6.95;;;;;;;;;;5056380;28;20099;-82
2022/04/25 03:12:54;;;;;;;7.68;6.50;;;;;;;;;;5056823;28;20025;-83
2022/04/25 03:15:20;;;;;;;8.30;6.93;;;;;;;;;;5056354;28;20483;-82
2022/04/25 03:17:45;;;;;;;9.48;7.32;;;;;;;;;;5038673;28;20429;-84
2022/04/25 03:20:10;;;;;;;9.63;7.05;;;;;;;;;;5056672;28;20028;-82
2022/04/25 03:22:36;;;;;;;8.50;7.20;;;;;;;;;;5035475;28;20036;-83
2022/04/25 03:25:02;;;;;;;8.88;7.00;;;;;;;;;;5053028;28;20091;-83
2022/04/25 03:27:28;;;;;;;7.68;6.88;;;;;;;;;;5056500;28;20379;-83
2022/04/25 03:29:53;;;;;;;8.82;7.82;;;;;;;;;;5055856;28;20025;-83
2022/04/25 03:32:31;;;;;;;9.02;7.97;;;;;;;;;;5056496;28;20479;-85
2022/04/25 03:34:57;;;;;;;18.83;13.75;;;;;;;;;;5055909;28;20048;-86
2022/04/25 03:37:26;;;;;;;103.80;71.00;;;;;;;;;;5056301;28;20025;-86
2022/04/25 03:39:51;;;;;;;69.65;49.28;;;;;;;;;;5056779;28;20033;-85
2022/04/25 03:42:18;;;;;;;48.37;34.30;;;;;;;;;;5038045;28;20020;-85
2022/04/25 03:44:44;;;;;;;15.60;12.25;;;;;;;;;;5056122;28;20271;-84
2022/04/25 03:47:10;;;;;;;8.98;7.72;;;;;;;;;;5055750;28;20066;-74
2022/04/25 03:49:35;;;;;;;8.40;7.20;;;;;;;;;;5055345;28;20032;-71
2022/04/25 03:52:00;;;;;;;9.45;7.65;;;;;;;;;;5055889;28;20035;-71
2022/04/25 03:57:13;;;;;;;11.10;8.80;;;;;;;;;;5056168;28;20559;-69
2022/04/25 03:59:39;;;;;;;13.05;9.07;;;;;;;;;;5056096;28;20360;-69
2022/04/25 04:02:05;;;;;;;12.90;9.82;;;;;;;;;;5055818;28;20075;-69
2022/04/25 04:04:31;;;;;;;13.18;9.30;;;;;;;;;;5037620;28;20053;-70
2022/04/25 04:06:57;;;;;;;10.82;8.30;;;;;;;;;;5055331;28;20112;-71
2022/04/25 04:12:06;;;;;;;15.60;9.55;;;;;;;;;;5055526;28;20044;-70
2022/04/25 04:14:31;;;;;;;18.35;10.95;;;;;;;;;;5055614;28;20036;-70
2022/04/25 04:16:58;;;;;;;11.70;8.88;;;;;;;;;;5055227;28;20500;-70
2022/04/25 04:19:24;;;;;;;10.88;7.97;;;;;;;;;;5054983;28;20017;-70
2022/04/25 04:21:50;;;;;;;8.30;6.22;;;;;;;;;;5055167;28;20036;-70
2022/04/25 04:24:15;;;;;;;8.98;6.55;;;;;;;;;;5055144;28;20036;-70
2022/04/25 04:26:40;;;;;;;10.05;8.15;;;;;;;;;;5036998;28;20025;-70
2022/04/25 04:29:06;;;;;;;12.15;8.30;;;;;;;;;;5037055;28;20048;-70
2022/04/25 04:31:31;;;;;;;12.13;8.80;;;;;;;;;;5037023;28;20406;-70
2022/04/25 04:33:56;;;;;;;15.27;9.90;;;;;;;;;;5055000;28;20076;-72
2022/04/25 04:36:22;;;;;;;15.52;10.43;;;;;;;;;;5054881;28;20040;-71
2022/04/25 04:38:47;;;;;;;18.52;11.55;;;;;;;;;;5055265;28;20059;-71
2022/04/25 04:41:13;;;;;;;30.98;18.73;;;;;;;;;;5054122;28;20082;-71
2022/04/25 04:43:38;;;;;;;36.75;22.20;;;;;;;;;;5054589;28;20365;-71
2022/04/25 04:46:03;;;;;;;27.33;18.85;;;;;;;;;;5054907;28;20029;-71
2022/04/25 04:48:29;;;;;;;26.58;17.10;;;;;;;;;;5054614;28;20144;-71
2022/04/25 04:50:58;;;;;;;30.23;19.25;;;;;;;;;;5054398;28;20102;-71
2022/04/25 04:53:23;;;;;;;20.98;14.73;;;;;;;;;;5036954;28;20016;-71
2022/04/25 04:55:49;;;;;;;19.02;14.07;;;;;;;;;;5036698;28;20534;-71
2022/04/25 04:58:14;;;;;;;28.50;21.45;;;;;;;;;;5036584;28;20099;-72
2022/04/25 05:00:44;;;;;;;23.75;18.33;;;;;;;;;;5053011;28;20043;-70
2022/04/25 05:03:15;;;;;;;19.17;16.00;;;;;;;;;;5034332;28;20025;-70
2022/04/25 05:05:44;;;;;;;18.35;15.73;;;;;;;;;;5036310;28;20036;-70
2022/04/25 05:08:10;;;;;;;17.85;13.70;;;;;;;;;;5054664;28;20033;-71
2022/04/25 05:10:35;;;;;;;14.43;11.88;;;;;;;;;;5019180;28;20036;-71
2022/04/25 05:13:00;;;;;;;17.05;12.23;;;;;;;;;;5053031;28;20082;-71
2022/04/25 05:15:27;;;;;;;15.90;11.68;;;;;;;;;;5054412;28;20035;-71
2022/04/25 05:17:55;;;;;;;16.75;11.85;;;;;;;;;;5054421;28;20439;-71
2022/04/25 05:20:23;;;;;;;18.83;13.27;;;;;;;;;;5053701;28;20029;-71
2022/04/25 05:22:49;;;;;;;22.52;12.75;;;;;;;;;;5033520;28;20377;-71
2022/04/25 05:25:18;;;;;;;14.23;10.55;;;;;;;;;;5035268;28;20079;-71
2022/04/25 05:27:48;;;;;;;21.85;12.98;;;;;;;;;;5036056;28;20095;-71
2022/04/25 05:30:16;;;;;;;23.23;14.00;;;;;;;;;;5053800;28;20178;-71
2022/04/25 05:32:44;;;;;;;30.52;17.92;;;;;;;;;;5054443;28;20021;-71
2022/04/25 05:35:11;;;;;;;29.48;16.95;;;;;;;;;;5053607;28;20120;-71
2022/04/25 05:37:37;;;;;;;36.85;20.73;;;;;;;;;;5053056;28;20365;-71
2022/04/25 05:40:03;;;;;;;28.95;16.92;;;;;;;;;;5053744;28;20048;-71
2022/04/25 05:42:29;;;;;;;25.50;15.15;;;;;;;;;;5053897;28;20021;-71
2022/04/25 05:44:54;;;;;;;26.20;16.20;;;;;;;;;;5053936;28;20028;-70
2022/04/25 05:47:19;;;;;;;20.75;13.43;;;;;;;;;;5053804;28;20095;-70
2022/04/25 05:52:29;;;;;;;15.50;10.90;;;;;;;;;;5053862;28;20033;-70
2022/04/25 05:54:54;;;;;;;15.65;11.10;;;;;;;;;;5054122;28;20032;-70
2022/04/25 05:57:20;;;;;;;13.75;9.70;;;;;;;;;;5053480;28;20104;-69
2022/04/25 05:59:45;;;;;;;26.90;18.65;;;;;;;;;;5053691;28;20533;-69
2022/04/25 06:02:10;;;;;;;15.23;9.25;;;;;;;;;;5053626;28;20035;-69
2022/04/25 06:04:36;;;;;;;12.63;9.40;;;;;;;;;;5035634;28;20025;-69
2022/04/25 06:07:04;;;;;;;15.10;9.82;;;;;;;;;;5051972;28;20087;-69
2022/04/25 06:09:29;;;;;;;15.15;10.32;;;;;;;;;;5052702;28;20017;-69
2022/04/25 06:11:54;;;;;;;18.08;12.02;;;;;;;;;;5053768;28;20119;-71
2022/04/25 06:14:21;;;;;;;18.77;12.52;;;;;;;;;;5053330;28;20025;-72
2022/04/25 06:16:46;;;;;;;16.63;11.00;;;;;;;;;;5053590;28;20108;-72
2022/04/25 06:19:12;;;;;;;17.58;11.07;;;;;;;;;;5053301;28;20048;-72
2022/04/25 06:21:37;;;;;;;13.05;10.45;;;;;;;;;;5053421;28;20076;-73
2022/04/25 06:24:03;;;;;;;13.43;9.55;;;;;;;;;;5053845;28;20032;-72
2022/04/25 06:26:30;;;;;;;12.52;9.35;;;;;;;;;;5053492;28;20036;-72
2022/04/25 06:28:56;;;;;;;13.10;9.60;;;;;;;;;;5053258;28;20025;-71
2022/04/25 06:31:23;;;;;;;13.18;9.85;;;;;;;;;;5053662;28;20048;-72
2022/04/25 06:33:48;;;;;;;16.42;10.40;;;;;;;;;;5047814;28;20049;-70
2022/04/25 06:36:14;;;;;;;14.68;10.13;;;;;;;;;;5073677;28;20032;-72
2022/04/25 06:38:39;;;;;;;13.43;9.55;;;;;;;;;;5073527;28;20091;-72
2022/04/25 06:41:04;;;;;;;13.27;9.40;;;;;;;;;;5071662;28;20037;-72
2022/04/25 06:43:31;;;;;;;15.00;9.93;;;;;;;;;;5071991;28;20375;-72
2022/04/25 06:45:58;;;;;;;17.35;10.95;;;;;;;;;;5072022;28;20024;-72
2022/04/25 06:48:23;;;;;;;13.27;9.65;;;;;;;;;;5072050;28;20021;-72
2022/04/25 06:50:48;;;;;;;15.70;9.32;;;;;;;;;;5087500;28;20086;-72
2022/04/25 06:53:14;;;;;;;14.10;10.13;;;;;;;;;;5071975;28;20052;-72
2022/04/25 06:55:39;;;;;;;16.20;10.60;;;;;;;;;;5071895;28;20021;-72
2022/04/25 06:58:06;;;;;;;11.53;9.37;;;;;;;;;;5071931;28;20476;-72
2022/04/25 07:00:33;;;;;;;16.27;9.95;;;;;;;;;;5071851;28;20267;-72
2022/04/25 07:02:58;;;;;;;13.20;7.40;;;;;;;;;;5053995;28;20025;-72
2022/04/25 07:05:24;;;;;;;12.40;7.82;;;;;;;;;;5075450;28;20035;-72
2022/04/25 07:07:50;;;;;;;8.18;6.70;;;;;;;;;;5075428;28;20051;-72
2022/04/25 07:10:15;;;;;;;10.80;7.40;;;;;;;;;;5075362;28;20039;-72
2022/04/25 07:12:41;;;;;;;12.23;8.37;;;;;;;;;;5074150;28;20025;-72
2022/04/25 07:15:08;;;;;;;8.75;5.72;;;;;;;;;;5075300;28;20255;-72
2022/04/25 07:17:33;;;;;;;7.60;5.90;;;;;;;;;;5057330;28;20464;-72
2022/04/25 07:19:58;;;;;;;6.43;5.32;;;;;;;;;;5075119;28;20036;-72
2022/04/25 07:30:36;;;;;;;8.30;6.50;;;;;;;;;;5074986;28;20037;-71
2022/04/25 07:33:02;;;;;;;6.70;5.00;;;;;;;;;;5090645;28;20044;-72
2022/04/25 07:35:27;;;;;;;8.38;6.32;;;;;;;;;;5074948;28;20549;-72
2022/04/25 07:37:53;;;;;;;5.13;4.63;;;;;;;;;;5057104;28;20392;-72
2022/04/25 07:40:18;;;;;;;7.13;5.07;;;;;;;;;;5057016;28;20480;-72
2022/04/25 07:42:43;;;;;;;6.83;5.33;;;;;;;;;;5074853;28;20353;-72
2022/04/25 07:45:09;;;;;;;9.05;5.28;;;;;;;;;;5056929;28;20621;-72
2022/04/25 07:47:34;;;;;;;6.57;5.18;;;;;;;;;;5074833;28;20288;-72
2022/04/25 07:50:00;;;;;;;5.95;5.35;;;;;;;;;;5074590;28;20127;-72
2022/04/25 07:52:25;;;;;;;6.20;5.07;;;;;;;;;;5074697;28;20052;-72
2022/04/25 07:54:55;;;;;;;5.40;4.68;;;;;;;;;;5073796;28;20369;-72
2022/04/25 07:57:20;;;;;;;6.05;5.07;;;;;;;;;;5074388;28;20025;-72
2022/04/25 07:59:45;;;;;;;6.85;5.15;;;;;;;;;;5089395;28;20534;-72
2022/04/25 08:02:11;;;;;;;7.32;5.10;;;;;;;;;;5074127;28;20100;-72
2022/04/25 08:04:37;;;;;;;6.90;4.85;;;;;;;;;;5074171;28;20064;-72
2022/04/25 08:07:02;;;;;;;6.47;5.20;;;;;;;;;;5073906;28;20012;-71
2022/04/25 08:09:28;;;;;;;6.95;5.20;;;;;;;;;;5073754;28;20025;-72
2022/04/25 08:17:56;;;;;;;8.13;5.82;;;;;;;;;;5056234;28;20046;-72
2022/04/25 08:20:07;;;;;;;13.27;6.97;;;;;;;;;;5073768;28;20028;-70
2022/04/25 08:22:33;;;;;;;10.38;6.88;;;;;;;;;;5073834;28;20035;-70
2022/04/25 08:25:01;;;;;;;10.50;7.03;;;;;;;;;;5073210;28;20392;-70
2022/04/25 08:27:26;;;;;;;9.27;6.60;;;;;;;;;;5089342;28;20486;-70
2022/04/25 08:29:51;;;;;;;12.30;7.20;;;;;;;;;;5089127;28;20107;-70
2022/04/25 08:32:17;;;;;;;11.63;6.57;;;;;;;;;;5088903;28;20479;-70
2022/04/25 08:34:43;;;;;;;8.63;5.53;;;;;;;;;;5073749;28;20039;-70
2022/04/25 08:37:08;;;;;;;7.88;4.90;;;;;;;;;;5072113;28;20013;-70
2022/04/25 08:39:34;;;;;;;5.50;4.50;;;;;;;;;;5073286;28;20029;-70
2022/04/25 08:41:59;;;;;;;4.63;3.30;;;;;;;;;;5073242;28;20409;-70
2022/04/25 08:44:25;;;;;;;4.90;3.83;;;;;;;;;;5073223;28;20523;-70
2022/04/25 08:46:51;;;;;;;5.03;3.97;;;;;;;;;;5073240;28;20020;-70
2022/04/25 08:49:18;;;;;;;7.28;5.25;;;;;;;;;;5073163;28;20476;-70
2022/04/25 08:51:44;;;;;;;9.55;4.97;;;;;;;;;;5055166;28;20098;-70
2022/04/25 08:54:09;;;;;;;6.35;4.55;;;;;;;;;;5072984;28;20455;-70
2022/04/25 08:56:39;;;;;;;7.03;4.35;;;;;;;;;;5072522;28;20098;-70
2022/04/25 08:59:07;;;;;;;7.60;4.40;;;;;;;;;;5074257;28;20043;-70
2022/04/25 09:01:34;;;;;;;6.78;5.13;;;;;;;;;;5074376;28;20020;-70
2022/04/25 09:04:01;;;;;;;6.57;4.15;;;;;;;;;;5074657;28;20021;-70
2022/04/25 09:06:26;;;;;;;5.85;3.70;;;;;;;;;;5074316;28;20443;-70
2022/04/25 09:08:52;;;;;;;5.00;2.90;;;;;;;;;;5074291;28;20111;-70
2022/04/25 09:14:02;;;;;;;3.03;2.08;;;;;;;;;;5073503;28;20111;-70
2022/04/25 09:16:27;;;;;;;2.85;2.30;;;;;;;;;;5073606;28;20036;-70
2022/04/25 09:18:53;;;;;;;3.97;2.90;;;;;;;;;;5073991;28;20029;-70
2022/04/25 09:21:18;;;;;;;2.50;2.30;;;;;;;;;;5072349;28;20411;-70
2022/04/25 09:23:44;;;;;;;2.25;2.10;;;;;;;;;;5055069;28;20041;-70
2022/04/25 09:26:10;;;;;;;3.45;2.58;;;;;;;;;;5072506;28;20054;-70
2022/04/25 09:28:53;;;;;;;2.13;1.92;;;;;;;;;;5072735;28;20388;-70
2022/04/25 09:31:19;;;;;;;2.90;2.67;;;;;;;;;;5071502;28;20396;-70
2022/04/25 09:33:45;;;;;;;2.55;2.35;;;;;;;;;;5071591;28;20043;-70
2022/04/25 09:36:10;;;;;;;2.70;2.33;;;;;;;;;;5071558;28;20443;-70
2022/04/25 09:38:37;;;;;;;3.20;2.30;;;;;;;;;;5071630;28;20016;-70
2022/04/25 09:41:04;;;;;;;2.92;2.53;;;;;;;;;;5071846;28;20024;-70
2022/04/25 09:43:30;;;;;;;3.45;3.15;;;;;;;;;;5072529;28;20025;-70
2022/04/25 09:45:59;;;;;;;4.78;3.03;;;;;;;;;;5074014;28;20036;-70
2022/04/25 09:48:25;;;;;;;5.82;3.10;;;;;;;;;;5073986;28;20016;-70
2022/04/25 09:51:01;;;;;;;6.38;3.03;;;;;;;;;;5073586;28;20047;-70
2022/04/25 09:53:41;;;;;;;5.70;3.33;;;;;;;;;;5073916;28;20029;-70
2022/04/25 09:56:14;;;;;;;2.85;2.65;;;;;;;;;;5073451;28;20544;-70
2022/04/25 09:58:41;;;;;;;2.80;2.35;;;;;;;;;;5055218;28;20036;-70
2022/04/25 10:01:13;;;;;;;4.07;2.28;;;;;;;;;;5073661;28;20021;-70
2022/04/25 10:03:40;;;;;;;3.22;2.70;;;;;;;;;;5073204;28;20029;-70
2022/04/25 10:06:05;;;;;;;3.05;2.80;;;;;;;;;;5073440;28;20052;-70
2022/04/25 10:08:31;;;;;;;2.58;2.30;;;;;;;;;;5073570;28;20040;-70
2022/04/25 10:10:57;;;;;;;3.00;2.70;;;;;;;;;;5073759;28;20053;-70
2022/04/25 10:13:24;;;;;;;3.58;3.28;;;;;;;;;;5074089;28;20457;-70
2022/04/25 10:15:49;;;;;;;5.40;2.95;;;;;;;;;;5073385;28;20021;-70
2022/04/25 10:18:15;;;;;;;3.22;3.03;;;;;;;;;;5055706;28;20507;-70
2022/04/25 10:20:42;;;;;;;3.47;3.13;;;;;;;;;;5073747;28;20020;-70
2022/04/25 10:23:09;;;;;;;3.50;3.20;;;;;;;;;;5073642;28;20060;-70
2022/04/25 10:25:36;;;;;;;5.15;3.33;;;;;;;;;;5073255;28;20027;-70
2022/04/25 10:28:05;;;;;;;3.83;2.90;;;;;;;;;;5073242;28;20388;-69
2022/04/25 10:30:35;;;;;;;3.33;2.53;;;;;;;;;;5073169;28;20020;-69
2022/04/25 10:33:17;;;;;;;3.15;2.55;;;;;;;;;;5055271;28;20051;-69
2022/04/25 10:35:47;;;;;;;5.03;3.30;;;;;;;;;;5055308;28;20082;-69
2022/04/25 10:38:47;;;;;;;42.67;15.40;;;;;;;;;;5073523;28;20024;-70
2022/04/25 10:44:19;;;;;;;33.38;11.55;;;;;;;;;;5077584;28;20040;-70
2022/04/25 10:47:03;;;;;;;33.15;9.60;;;;;;;;;;5059060;28;20102;-70
2022/04/25 10:49:36;;;;;;;24.50;8.35;;;;;;;;;;5059132;28;20047;-70
2022/04/25 10:52:02;;;;;;;15.48;6.32;;;;;;;;;;5058909;28;20039;-70
2022/04/25 10:54:45;;;;;;;28.70;8.50;;;;;;;;;;5077017;28;20016;-70
2022/04/25 10:57:11;;;;;;;9.60;5.28;;;;;;;;;;5076762;28;20062;-70
2022/04/25 10:59:39;;;;;;;8.05;5.53;;;;;;;;;;5077021;28;20107;-70
2022/04/25 11:02:21;;;;;;;5.80;4.10;;;;;;;;;;5076735;28;20043;-70
2022/04/25 11:04:46;;;;;;;6.43;4.40;;;;;;;;;;5076938;28;20028;-70
2022/04/25 11:07:20;;;;;;;6.32;4.50;;;;;;;;;;5076823;28;20491;-70
2022/04/25 11:09:45;;;;;;;7.00;4.35;;;;;;;;;;5076552;28;20029;-70
2022/04/25 11:12:11;;;;;;;8.57;4.30;;;;;;;;;;5059076;28;20499;-70
2022/04/25 11:14:36;;;;;;;5.28;3.40;;;;;;;;;;5076698;28;20031;-69
2022/04/25 11:17:11;;;;;;;2.80;2.47;;;;;;;;;;5076421;28;20023;-69
2022/04/25 11:19:47;;;;;;;6.78;3.58;;;;;;;;;;5076550;28;20038;-69
2022/04/25 11:22:48;;;;;;;5.97;3.20;;;;;;;;;;5058764;28;20033;-69
2022/04/25 11:25:22;;;;;;;7.28;4.05;;;;;;;;;;5057789;28;20377;-69
2022/04/25 11:28:04;;;;;;;4.95;3.30;;;;;;;;;;5075098;28;20029;-69
2022/04/25 11:30:30;;;;;;;7.00;4.63;;;;;;;;;;5074968;28;20060;-70
2022/04/25 11:33:05;;;;;;;9.35;6.25;;;;;;;;;;5074863;28;20483;-70
2022/04/25 11:35:31;;;;;;;7.15;5.63;;;;;;;;;;5074987;28;20468;-70
2022/04/25 11:37:57;;;;;;;13.05;8.95;;;;;;;;;;5074947;28;20043;-70
2022/04/25 11:40:22;;;;;;;14.18;9.75;;;;;;;;;;5074877;28;20039;-70
2022/04/25 11:42:47;;;;;;;11.60;7.63;;;;;;;;;;5056775;28;20571;-70
2022/04/25 11:45:13;;;;;;;6.82;5.93;;;;;;;;;;5056820;28;20044;-70
2022/04/25 11:47:39;;;;;;;7.60;5.43;;;;;;;;;;5074751;28;20048;-69
2022/04/25 11:50:06;;;;;;;6.00;5.30;;;;;;;;;;5074223;28;20036;-69
2022/04/25 11:52:31;;;;;;;7.13;5.80;;;;;;;;;;5074566;28;20027;-70
2022/04/25 11:54:57;;;;;;;8.50;6.10;;;;;;;;;;5074691;28;20025;-70
2022/04/25 11:57:23;;;;;;;8.38;6.40;;;;;;;;;;5074620;28;20024;-71
2022/04/25 11:59:49;;;;;;;8.15;6.63;;;;;;;;;;5056837;28;20028;-71
2022/04/25 12:02:15;;;;;;;7.20;6.50;;;;;;;;;;5056566;28;20445;-71
2022/04/25 12:04:42;;;;;;;8.00;6.18;;;;;;;;;;5074435;28;20085;-71
2022/04/25 12:07:09;;;;;;;11.13;7.00;;;;;;;;;;5074324;28;20461;-71
2022/04/25 12:18:10;;;;;;;10.02;7.20;;;;;;;;;;5074159;28;20063;-70
2022/04/25 12:20:35;;;;;;;8.80;7.03;;;;;;;;;;5056342;28;20025;-70
2022/04/25 12:23:00;;;;;;;8.23;5.80;;;;;;;;;;5056140;28;20021;-70
2022/04/25 12:25:29;;;;;;;5.53;4.57;;;;;;;;;;5073940;28;20094;-70
2022/04/25 12:28:13;;;;;;;8.15;5.32;;;;;;;;;;5052836;28;20013;-70
2022/04/25 12:30:48;;;;;;;5.25;4.75;;;;;;;;;;5049409;28;20090;-70
2022/04/25 12:33:14;;;;;;;5.55;4.53;;;;;;;;;;5055864;28;20041;-70
2022/04/25 12:35:40;;;;;;;6.78;5.15;;;;;;;;;;5073898;28;20055;-70
2022/04/25 12:38:06;;;;;;;6.88;5.03;;;;;;;;;;5073802;28;20028;-70
2022/04/25 12:40:51;;;;;;;5.47;4.97;;;;;;;;;;5052702;28;20031;-70
2022/04/25 12:43:33;;;;;;;6.22;5.63;;;;;;;;;;5071827;28;20144;-70
2022/04/25 12:45:58;;;;;;;6.35;5.07;;;;;;;;;;5073559;28;20529;-70
2022/04/25 12:48:23;;;;;;;5.20;4.70;;;;;;;;;;5073479;28;20115;-70
2022/04/25 12:50:49;;;;;;;6.03;4.93;;;;;;;;;;5073356;28;20408;-70
2022/04/25 12:53:15;;;;;;;4.35;3.95;;;;;;;;;;5073454;28;20021;-70
2022/04/25 12:55:44;;;;;;;4.55;4.15;;;;;;;;;;5073407;28;20025;-70
2022/04/25 12:58:10;;;;;;;4.05;3.50;;;;;;;;;;5073179;28;20059;-70
2022/04/25 13:00:42;;;;;;;4.47;3.95;;;;;;;;;;5073033;28;20071;-70
2022/04/25 13:03:09;;;;;;;6.15;5.20;;;;;;;;;;5072918;28;20077;-70
2022/04/25 13:05:34;;;;;;;3.47;3.17;;;;;;;;;;5073278;28;20016;-71
2022/04/25 13:08:00;;;;;;;5.25;3.70;;;;;;;;;;5073131;28;20059;-71
2022/04/25 13:10:25;;;;;;;3.92;3.63;;;;;;;;;;5073051;28;20123;-71
2022/04/25 13:12:54;;;;;;;3.25;3.05;;;;;;;;;;5073050;28;20047;-70
2022/04/25 13:15:20;;;;;;;4.90;3.88;;;;;;;;;;5055049;28;20024;-70
2022/04/25 13:17:48;;;;;;;3.75;3.42;;;;;;;;;;5073250;28;20499;-70
2022/04/25 13:20:13;;;;;;;3.45;3.25;;;;;;;;;;5073224;28;20028;-70
2022/04/25 13:22:39;;;;;;;4.20;3.90;;;;;;;;;;5072898;28;20038;-70
2022/04/25 13:25:06;;;;;;;13.88;12.48;;;;;;;;;;5072846;28;20095;-71
2022/04/25 13:27:31;;;;;;;5.10;4.70;;;;;;;;;;5072873;28;20434;-70
2022/04/25 13:29:57;;;;;;;8.48;7.75;;;;;;;;;;5072761;28;20024;-70
2022/04/25 13:32:22;;;;;;;6.15;4.55;;;;;;;;;;5072693;28;20075;-71
2022/04/25 13:34:48;;;;;;;4.05;3.72;;;;;;;;;;5072660;28;20487;-71
2022/04/25 13:37:13;;;;;;;4.38;3.83;;;;;;;;;;5072783;28;20013;-70
2022/04/25 13:39:39;;;;;;;4.20;3.75;;;;;;;;;;5055160;28;20377;-71
2022/04/25 13:42:04;;;;;;;4.03;3.60;;;;;;;;;;5054601;28;20028;-70
2022/04/25 13:44:30;;;;;;;3.63;3.33;;;;;;;;;;5054754;28;20032;-71
2022/04/25 13:46:55;;;;;;;3.55;3.35;;;;;;;;;;5054668;28;20495;-70
2022/04/25 13:49:21;;;;;;;3.67;3.40;;;;;;;;;;5072530;28;20042;-71
2022/04/25 13:51:46;;;;;;;4.30;3.90;;;;;;;;;;5037914;28;20468;-71
2022/04/25 13:54:12;;;;;;;4.05;3.65;;;;;;;;;;5054550;28;20384;-70
2022/04/25 13:56:37;;;;;;;4.57;4.18;;;;;;;;;;5072431;28;20025;-71
2022/04/25 13:59:03;;;;;;;6.30;5.65;;;;;;;;;;5072363;28;20040;-70
2022/04/25 14:01:28;;;;;;;6.25;4.82;;;;;;;;;;5072387;28;20028;-70
2022/04/25 14:03:54;;;;;;;4.80;4.05;;;;;;;;;;5072390;28;20028;-70
2022/04/25 14:06:20;;;;;;;5.10;4.30;;;;;;;;;;5072247;28;20052;-70
2022/04/25 14:08:45;;;;;;;7.78;7.18;;;;;;;;;;5054461;28;20060;-70
2022/04/25 14:11:11;;;;;;;5.68;5.18;;;;;;;;;;5072137;28;20063;-70
2022/04/25 14:13:36;;;;;;;6.53;5.93;;;;;;;;;;5058903;28;20025;-70
2022/04/25 14:16:02;;;;;;;7.18;6.07;;;;;;;;;;5078977;28;20475;-70
2022/04/25 14:18:29;;;;;;;8.80;6.38;;;;;;;;;;5060829;28;20020;-70
2022/04/25 14:20:54;;;;;;;10.88;7.13;;;;;;;;;;5061017;28;20380;-70
2022/04/25 14:23:20;;;;;;;8.93;7.90;;;;;;;;;;5078885;28;20036;-70
2022/04/25 14:25:45;;;;;;;7.28;6.57;;;;;;;;;;5078703;28;20066;-71
2022/04/25 14:28:11;;;;;;;7.07;6.38;;;;;;;;;;5078795;28;20115;-71
2022/04/25 14:30:36;;;;;;;6.93;6.05;;;;;;;;;;5043910;28;20035;-71
2022/04/25 14:33:02;;;;;;;7.63;6.35;;;;;;;;;;5077983;28;20064;-70
2022/04/25 14:35:27;;;;;;;7.07;6.38;;;;;;;;;;5078274;28;20150;-70
2022/04/25 14:37:53;;;;;;;6.40;5.75;;;;;;;;;;5078229;28;20028;-70
2022/04/25 14:40:18;;;;;;;6.47;5.88;;;;;;;;;;5078989;28;20101;-70
2022/04/25 14:42:44;;;;;;;6.55;5.95;;;;;;;;;;5060442;28;20038;-70
2022/04/25 14:45:09;;;;;;;13.30;8.13;;;;;;;;;;5078369;28;20483;-70
2022/04/25 14:47:35;;;;;;;7.15;6.45;;;;;;;;;;5060667;28;20032;-71
2022/04/25 14:55:30;;;;;;;7.93;5.70;;;;;;;;;;5078208;28;20024;-70
2022/04/25 14:57:55;;;;;;;5.10;4.80;;;;;;;;;;5060159;28;20056;-69
2022/04/25 15:00:22;;;;;;;4.40;4.10;;;;;;;;;;5078246;28;20076;-69
2022/04/25 15:02:48;;;;;;;4.72;4.32;;;;;;;;;;5060775;28;20447;-69
2022/04/25 15:05:14;;;;;;;5.47;4.97;;;;;;;;;;5078752;28;20116;-70
2022/04/25 15:07:39;;;;;;;6.40;5.55;;;;;;;;;;5078861;28;20056;-69
2022/04/25 15:10:05;;;;;;;7.05;5.45;;;;;;;;;;5060219;28;20064;-69
2022/04/25 15:12:30;;;;;;;6.38;5.43;;;;;;;;;;5078942;28;20024;-70
2022/04/25 15:14:56;;;;;;;6.45;5.85;;;;;;;;;;5079473;28;20434;-70
2022/04/25 15:17:21;;;;;;;5.70;5.15;;;;;;;;;;5078908;28;20012;-70
2022/04/25 15:19:46;;;;;;;7.20;6.55;;;;;;;;;;5060869;28;20032;-70